Time;durP1;ratioP1;P1;durP2;ratioP2;P2;SDS_P1;SDS_P2;PMS_P1;PMS_P2;Temp;Humidity;BMP_temperature;BMP_pressure;BME280_temperature;BME280_humidity;BME280_pressure;Samples;Min_cycle;Max_cycle;Signal;HPM_P1;HPM_P2
2022/05/05 00:02:52;;;;;;;22.20;12.10;;;;;;;5.13;100.00;101967.72;10290757;28;20545;-82
2022/05/05 00:07:53;;;;;;;26.88;15.95;;;;;;;5.03;100.00;101957.94;10308083;28;20043;-82
2022/05/05 00:18:12;;;;;;;34.97;20.85;;;;;;;5.15;100.00;101976.56;10327711;28;20462;-82
2022/05/05 00:23:13;;;;;;;34.08;21.17;;;;;;;5.03;100.00;101974.31;10346454;28;20034;-82
2022/05/05 00:28:13;;;;;;;30.17;18.05;;;;;;;5.00;100.00;101969.25;10338315;28;20074;-82
2022/05/05 00:33:14;;;;;;;20.38;11.77;;;;;;;4.98;100.00;101976.78;10354809;28;20034;-82
2022/05/05 00:38:14;;;;;;;20.15;10.20;;;;;;;5.03;100.00;101974.31;10339784;28;20030;-82
2022/05/05 00:43:16;;;;;;;18.08;10.38;;;;;;;5.02;100.00;101978.09;10337993;28;20089;-84
2022/05/05 00:48:17;;;;;;;22.90;12.07;;;;;;;4.89;100.00;101960.69;10354508;28;20045;-82
2022/05/05 00:53:17;;;;;;;16.50;9.80;;;;;;;4.97;100.00;101977.81;10329518;28;20043;-82
2022/05/05 00:58:18;;;;;;;15.43;7.97;;;;;;;4.91;100.00;101953.16;10332037;28;20098;-81
2022/05/05 01:03:18;;;;;;;14.85;8.30;;;;;;;4.87;100.00;101958.16;10319717;28;20038;-82
2022/05/05 01:08:19;;;;;;;18.65;8.45;;;;;;;4.84;100.00;101955.81;10314321;28;20067;-82
2022/05/05 01:13:19;;;;;;;15.77;8.02;;;;;;;4.82;100.00;101960.59;10280957;28;20050;-82
2022/05/05 01:18:20;;;;;;;17.45;7.78;;;;;;;4.76;100.00;101950.44;10296276;28;20046;-82
2022/05/05 01:23:21;;;;;;;11.27;7.03;;;;;;;4.77;100.00;101961.16;10301654;28;20561;-83
2022/05/05 01:28:21;;;;;;;12.85;7.63;;;;;;;4.71;100.00;101964.63;10352621;28;20018;-81
2022/05/05 01:33:23;;;;;;;15.32;8.35;;;;;;;4.77;100.00;101973.97;10352855;28;20035;-82
2022/05/05 01:38:25;;;;;;;15.95;7.90;;;;;;;4.81;100.00;101988.91;10352357;28;20038;-81
2022/05/05 01:43:26;;;;;;;11.70;8.00;;;;;;;4.76;100.00;101983.19;10319971;28;20054;-83
2022/05/05 01:48:27;;;;;;;17.17;8.60;;;;;;;4.65;100.00;101963.53;10303764;28;20445;-82
2022/05/05 01:53:28;;;;;;;19.02;8.82;;;;;;;4.77;100.00;101984.88;10310752;28;20039;-82
2022/05/05 01:58:28;;;;;;;11.70;8.23;;;;;;;4.78;100.00;102001.06;10293842;28;20027;-82
2022/05/05 02:03:29;;;;;;;14.48;8.27;;;;;;;4.64;100.00;101964.56;10317905;28;20034;-82
2022/05/05 02:08:29;;;;;;;16.63;8.57;;;;;;;4.77;100.00;102001.25;10309611;28;20057;-82
2022/05/05 02:13:30;;;;;;;17.92;8.77;;;;;;;4.59;100.00;101983.38;10310332;28;20086;-82
2022/05/05 02:18:31;;;;;;;15.27;8.63;;;;;;;4.61;100.00;101997.69;10293312;28;20030;-81
2022/05/05 02:23:31;;;;;;;12.65;8.95;;;;;;;4.63;100.00;101995.59;10310925;28;20514;-82
2022/05/05 02:28:32;;;;;;;15.77;8.82;;;;;;;4.61;100.00;102008.59;10347471;28;20390;-81
2022/05/05 02:33:32;;;;;;;20.48;10.07;;;;;;;4.61;100.00;102014.03;10350842;28;20023;-81
2022/05/05 02:38:47;;;;;;;16.88;9.43;;;;;;;4.29;100.00;101974.31;10350992;28;20049;-82
2022/05/05 02:43:48;;;;;;;20.13;9.90;;;;;;;4.55;100.00;102017.50;10315053;28;20102;-82
2022/05/05 02:48:48;;;;;;;16.30;9.00;;;;;;;4.28;100.00;101994.44;10310062;28;20522;-83
2022/05/05 02:59:08;;;;;;;19.85;9.98;;;;;;;4.21;100.00;102002.50;10269146;29;20086;-82
2022/05/05 03:04:08;;;;;;;18.95;10.63;;;;;;;4.18;100.00;102019.22;10254005;29;20101;-82
2022/05/05 03:09:09;;;;;;;19.52;11.45;;;;;;;4.14;100.00;102011.59;10268491;29;20038;-82
2022/05/05 03:14:09;;;;;;;18.23;9.63;;;;;;;4.15;100.00;102003.22;10252171;29;20035;-82
2022/05/05 03:19:10;;;;;;;22.60;10.75;;;;;;;3.76;100.00;101944.31;10268299;29;20027;-82
2022/05/05 03:24:10;;;;;;;18.95;11.70;;;;;;;4.15;100.00;102016.00;10263667;29;20035;-82
2022/05/05 03:29:11;;;;;;;18.08;11.07;;;;;;;4.09;100.00;102019.47;10268531;28;20023;-82
2022/05/05 03:34:11;;;;;;;18.83;11.43;;;;;;;4.05;100.00;102018.97;10252858;29;20469;-82
2022/05/05 03:39:12;;;;;;;21.08;12.43;;;;;;;3.99;100.00;102014.25;10271337;28;20196;-82
2022/05/05 03:44:12;;;;;;;20.15;11.80;;;;;;;4.04;100.00;102000.94;10315651;28;20042;-82
2022/05/05 03:49:13;;;;;;;19.50;12.57;;;;;;;4.18;100.00;102034.75;10330881;28;20035;-82
2022/05/05 03:54:13;;;;;;;22.33;12.15;;;;;;;4.26;100.00;102037.41;10330341;28;20074;-82
2022/05/05 03:59:14;;;;;;;27.30;12.20;;;;;;;3.96;100.00;101988.22;10350799;28;20023;-82
2022/05/05 04:04:15;;;;;;;19.67;12.32;;;;;;;4.16;100.00;102009.53;10340816;28;20392;-82
2022/05/05 04:09:16;;;;;;;20.30;12.75;;;;;;;4.31;100.00;102018.59;10355305;28;20050;-81
2022/05/05 04:14:17;;;;;;;23.83;12.38;;;;;;;4.56;100.00;102035.56;10306879;28;20034;-82
2022/05/05 04:19:17;;;;;;;19.90;12.70;;;;;;;4.69;100.00;102043.09;10338917;28;20046;-82
2022/05/05 04:24:18;;;;;;;25.55;14.07;;;;;;;4.83;100.00;102047.72;10340273;28;20034;-82
2022/05/05 04:29:18;;;;;;;20.98;13.80;;;;;;;5.03;100.00;102061.66;10339570;28;20026;-82
2022/05/05 04:34:19;;;;;;;20.55;14.10;;;;;;;5.18;100.00;102058.91;10355272;28;20033;-82
2022/05/05 04:39:19;;;;;;;22.13;13.20;;;;;;;5.31;100.00;102065.59;10354431;28;20576;-83
2022/05/05 04:44:20;;;;;;;19.67;13.45;;;;;;;5.55;100.00;102072.63;10322093;28;20034;-82
2022/05/05 04:49:20;;;;;;;27.23;13.85;;;;;;;5.63;100.00;102075.25;10355672;28;20088;-81
2022/05/05 04:54:21;;;;;;;21.58;13.35;;;;;;;5.77;100.00;102066.16;10376259;28;20053;-82
2022/05/05 04:59:22;;;;;;;21.42;12.93;;;;;;;5.97;100.00;102081.94;10379011;28;20033;-82
2022/05/05 05:04:22;;;;;;;20.13;13.27;;;;;;;6.11;100.00;102082.94;10392788;28;20033;-82
2022/05/05 05:09:23;;;;;;;23.90;12.77;;;;;;;6.14;100.00;102097.06;10376531;28;20469;-82
2022/05/05 05:14:23;;;;;;;24.73;12.82;;;;;;;6.28;100.00;102108.13;10377083;28;20029;-82
2022/05/05 05:19:27;;;;;;;17.85;11.50;;;;;;;6.25;100.00;102087.50;10337566;28;20062;-82
2022/05/05 05:24:27;;;;;;;20.30;13.45;;;;;;;6.40;100.00;102101.09;10319136;28;20034;-82
2022/05/05 05:29:28;;;;;;;20.02;14.00;;;;;;;6.52;100.00;102105.00;10353886;28;20037;-82
2022/05/05 05:34:28;;;;;;;20.52;12.32;;;;;;;6.77;100.00;102099.91;10336404;28;20042;-82
2022/05/05 05:39:30;;;;;;;18.67;11.95;;;;;;;6.57;100.00;102045.03;10335113;28;20471;-83
2022/05/05 05:44:30;;;;;;;18.88;12.18;;;;;;;7.12;100.00;102110.06;10367908;28;20042;-82
2022/05/05 05:49:31;;;;;;;21.40;11.60;;;;;;;7.32;100.00;102108.28;10351795;28;20030;-83
2022/05/05 05:54:31;;;;;;;15.48;9.00;;;;;;;7.55;100.00;102115.38;10351788;28;20053;-82
2022/05/05 05:59:32;;;;;;;18.33;9.90;;;;;;;7.59;100.00;102105.69;10336656;28;20505;-82
2022/05/05 06:04:32;;;;;;;17.50;10.70;;;;;;;7.69;100.00;102097.94;10334368;28;20049;-82
2022/05/05 06:09:33;;;;;;;15.88;10.13;;;;;;;8.09;100.00;102128.22;10334291;28;20101;-83
2022/05/05 06:14:33;;;;;;;14.25;9.52;;;;;;;8.21;100.00;102121.06;10334286;28;20041;-82
2022/05/05 06:19:34;;;;;;;18.55;9.80;;;;;;;8.35;100.00;102127.44;10356542;28;20030;-82
2022/05/05 06:24:34;;;;;;;17.92;10.18;;;;;;;8.47;100.00;102113.94;10341910;28;20575;-82
2022/05/05 06:29:35;;;;;;;16.85;9.88;;;;;;;8.71;100.00;102120.72;10390925;28;20034;-81
2022/05/05 06:34:35;;;;;;;16.85;8.95;;;;;;;8.90;100.00;102127.25;10358127;28;20045;-82
2022/05/05 06:39:36;;;;;;;14.23;9.18;;;;;;;9.15;100.00;102123.84;10306285;28;20054;-83
2022/05/05 06:44:36;;;;;;;20.00;8.77;;;;;;;9.30;100.00;102113.44;10349607;28;20043;-83
2022/05/05 06:49:37;;;;;;;18.52;9.25;;;;;;;9.42;100.00;102127.34;10333691;28;20042;-81
2022/05/05 06:54:37;;;;;;;13.27;8.77;;;;;;;9.47;100.00;102109.16;10349804;28;20057;-82
2022/05/05 06:59:38;;;;;;;16.08;9.07;;;;;;;9.66;100.00;102125.81;10350183;28;20045;-82
2022/05/05 07:15:17;;;;;;;15.38;9.40;;;;;;;10.19;100.00;102138.44;10363607;28;20080;-83
2022/05/05 07:20:17;;;;;;;19.38;8.52;;;;;;;10.29;100.00;102136.03;10373019;28;20077;-82
2022/05/05 07:25:19;;;;;;;17.17;9.50;;;;;;;10.50;100.00;102151.41;10341492;28;20033;-82
2022/05/05 07:30:20;;;;;;;15.50;9.45;;;;;;;10.77;100.00;102164.97;10330737;28;20048;-83
2022/05/05 07:35:21;;;;;;;21.85;8.55;;;;;;;10.98;100.00;102148.06;10330795;28;20042;-82
2022/05/05 07:40:21;;;;;;;16.05;8.57;;;;;;;11.27;100.00;102164.97;10315363;28;20046;-83
2022/05/05 07:45:22;;;;;;;21.73;8.90;;;;;;;11.24;100.00;102122.13;10331571;28;20483;-82
2022/05/05 07:50:23;;;;;;;12.82;8.32;;;;;;;11.79;100.00;102156.31;10316013;28;20039;-83
2022/05/05 07:55:23;;;;;;;14.20;8.77;;;;;;;12.12;100.00;102155.91;10339925;28;20038;-82
2022/05/05 08:00:24;;;;;;;17.65;8.52;;;;;;;12.38;100.00;102153.84;10387525;28;20041;-83
2022/05/05 08:05:25;;;;;;;15.55;8.90;;;;;;;12.65;100.00;102163.44;10387438;28;20045;-83
2022/05/05 08:10:28;;;;;;;20.60;7.72;;;;;;;12.76;100.00;102152.63;10339178;28;20044;-82
2022/05/05 08:15:29;;;;;;;16.27;7.90;;;;;;;13.08;100.00;102159.53;10370932;28;20038;-83
2022/05/05 08:20:30;;;;;;;14.40;7.32;;;;;;;13.37;100.00;102167.94;10355464;28;20030;-84
2022/05/05 08:30:49;;;;;;;14.35;6.30;;;;;;;13.77;94.50;102166.34;10328848;28;20038;-84
2022/05/05 08:35:50;;;;;;;11.10;6.05;;;;;;;13.87;96.56;102170.16;10330483;28;20045;-83
2022/05/05 08:40:50;;;;;;;11.55;6.53;;;;;;;14.11;91.34;102176.44;10314674;28;20089;-83
2022/05/05 08:45:53;;;;;;;12.35;6.28;;;;;;;14.04;87.64;102150.00;10337935;28;20584;-81
2022/05/05 08:50:59;;;;;;;11.48;6.13;;;;;;;14.21;89.10;102158.38;10340248;28;20081;-82
2022/05/05 08:56:01;;;;;;;13.10;5.68;;;;;;;14.56;85.19;102143.53;10344523;28;20089;-83
2022/05/05 09:01:01;;;;;;;14.80;6.32;;;;;;;14.80;85.78;102153.38;10359458;28;20030;-84
2022/05/05 09:06:01;;;;;;;9.32;5.25;;;;;;;14.94;83.92;102148.31;10357049;28;20026;-83
2022/05/05 09:11:04;;;;;;;11.63;5.88;;;;;;;15.18;85.90;102160.06;10341057;28;20034;-83
2022/05/05 09:16:05;;;;;;;10.30;4.85;;;;;;;15.50;82.68;102154.72;10339631;28;20028;-82
2022/05/05 09:21:06;;;;;;;8.15;4.90;;;;;;;15.72;81.62;102156.69;10346694;28;20033;-81
2022/05/05 09:26:10;;;;;;;7.60;4.88;;;;;;;15.94;78.79;102138.09;10340918;28;20046;-82
2022/05/05 09:31:11;;;;;;;7.07;4.30;;;;;;;16.18;77.13;102137.78;10366023;28;20046;-83
2022/05/05 09:36:13;;;;;;;10.30;4.43;;;;;;;16.36;75.93;102144.94;10359239;28;20029;-83
2022/05/05 09:41:13;;;;;;;5.55;4.13;;;;;;;16.66;75.79;102161.09;10355167;28;20097;-83
2022/05/05 09:46:23;;;;;;;5.75;4.15;;;;;;;16.73;73.61;102178.38;10343867;28;20049;-83
2022/05/05 09:51:24;;;;;;;9.73;5.30;;;;;;;16.79;74.32;102172.88;10386321;28;20106;-83
2022/05/05 10:01:46;;;;;;;7.28;4.20;;;;;;;17.95;71.95;102179.53;10353929;28;20044;-83
2022/05/05 10:06:47;;;;;;;8.77;4.78;;;;;;;17.91;69.12;102176.44;10337668;28;20486;-82
2022/05/05 10:11:48;;;;;;;9.55;6.05;;;;;;;18.02;68.39;102156.97;10356356;28;20025;-83
2022/05/05 10:16:48;;;;;;;11.02;5.10;;;;;;;18.05;67.49;102173.16;10352856;28;20017;-83
2022/05/05 10:22:11;;;;;;;7.80;4.90;;;;;;;17.86;68.31;102184.78;10322891;28;20487;-83
2022/05/05 10:27:11;;;;;;;7.85;5.32;;;;;;;17.69;68.53;102171.03;10345007;28;20033;-83
2022/05/05 10:32:19;;;;;;;8.48;5.00;;;;;;;17.88;66.69;102154.72;10367568;28;20065;-83
2022/05/05 10:37:22;;;;;;;10.25;5.20;;;;;;;18.23;66.71;102178.25;10362084;28;20034;-83
2022/05/05 10:42:45;;;;;;;11.68;5.53;;;;;;;18.11;66.44;102145.03;10337892;28;20129;-83
2022/05/05 10:47:58;;;;;;;9.13;5.90;;;;;;;19.11;65.23;102188.38;10339898;28;20042;-86
2022/05/05 10:52:59;;;;;;;11.52;5.65;;;;;;;19.28;63.37;102153.75;10338557;28;20030;-84
2022/05/05 10:58:00;;;;;;;8.00;5.88;;;;;;;18.67;63.96;102177.75;10325585;28;20046;-84
2022/05/05 11:03:00;;;;;;;10.77;6.22;;;;;;;18.90;64.08;102181.97;10316080;28;20030;-83
2022/05/05 11:08:25;;;;;;;13.02;6.55;;;;;;;19.64;66.21;102195.59;10354228;28;20100;-83
2022/05/05 11:13:47;;;;;;;7.93;6.05;;;;;;;19.95;61.44;102180.41;10347997;28;20041;-84
2022/05/05 11:21:32;;;;;;;9.73;5.40;;;;;;;20.11;61.69;102171.91;10347483;28;20111;-84
2022/05/05 11:24:29;;;;;;;10.25;5.57;;;;;;;20.39;61.54;102172.34;10331457;28;20034;-84
2022/05/05 11:29:32;;;;;;;10.20;5.88;;;;;;;20.75;61.23;102173.78;10332330;28;20025;-83
2022/05/05 11:34:37;;;;;;;9.82;6.25;;;;;;;20.82;61.12;102167.03;10364938;28;20598;-85
2022/05/05 11:39:37;;;;;;;8.52;5.63;;;;;;;20.26;57.04;102168.22;10355088;28;20034;-85
2022/05/05 11:44:43;;;;;;;8.27;5.60;;;;;;;20.41;56.17;102153.31;10386903;28;20049;-84
2022/05/05 11:49:46;;;;;;;7.00;5.43;;;;;;;20.64;55.21;102135.81;10338848;28;20697;-84
2022/05/05 11:54:48;;;;;;;7.05;5.57;;;;;;;21.01;55.32;102167.97;10339683;28;20026;-83
2022/05/05 12:05:08;;;;;;;8.48;5.07;;;;;;;21.61;53.97;102156.47;10359457;28;20033;-82
2022/05/05 12:10:08;;;;;;;8.15;6.07;;;;;;;21.82;51.74;102130.97;10338422;28;20030;-83
2022/05/05 12:15:10;;;;;;;8.52;4.88;;;;;;;22.13;53.61;102148.22;10354755;28;20101;-83
2022/05/05 12:20:12;;;;;;;8.60;5.57;;;;;;;22.69;52.95;102147.38;10341897;28;20034;-84
2022/05/05 12:25:14;;;;;;;8.23;4.95;;;;;;;22.49;52.35;102140.16;10353853;28;20117;-84
2022/05/05 12:30:34;;;;;;;9.35;6.35;;;;;;;23.39;51.19;102133.56;10336226;28;20460;-84
2022/05/05 12:35:38;;;;;;;8.07;5.20;;;;;;;23.86;50.95;102140.75;10352451;28;20493;-84
2022/05/05 12:40:43;;;;;;;9.07;5.75;;;;;;;23.95;50.33;102138.03;10333696;28;20511;-84
2022/05/05 12:45:45;;;;;;;7.90;5.10;;;;;;;23.96;48.71;102120.84;10330972;28;20046;-84
2022/05/05 12:50:47;;;;;;;7.95;6.28;;;;;;;24.07;48.06;102129.06;10372829;28;20058;-85
2022/05/05 13:01:06;;;;;;;9.88;4.97;;;;;;;24.70;47.71;102128.13;10371918;28;20041;-84
2022/05/05 13:06:08;;;;;;;9.77;6.95;;;;;;;24.94;48.09;102143.84;10341363;28;20054;-84
2022/05/05 13:11:08;;;;;;;6.47;4.78;;;;;;;24.47;46.32;102134.88;10338919;28;20033;-84
2022/05/05 13:16:09;;;;;;;9.65;5.90;;;;;;;23.63;47.32;102138.97;10357696;28;20034;-84
2022/05/05 13:21:10;;;;;;;8.57;5.28;;;;;;;23.03;49.14;102143.50;10355504;28;20114;-84
2022/05/05 13:26:11;;;;;;;7.75;4.68;;;;;;;22.54;50.01;102161.69;10339088;28;20385;-84
2022/05/05 13:31:12;;;;;;;10.98;6.63;;;;;;;22.14;51.06;102155.50;10339368;28;20025;-84
2022/05/05 13:36:12;;;;;;;13.35;8.13;;;;;;;22.29;53.62;102166.53;10339320;28;20034;-84
2022/05/05 13:41:13;;;;;;;8.35;5.93;;;;;;;22.02;56.19;102185.97;10339148;28;20053;-84
2022/05/05 13:46:13;;;;;;;10.32;7.20;;;;;;;22.00;55.68;102177.84;10342176;28;20041;-83
2022/05/05 13:51:14;;;;;;;11.32;7.47;;;;;;;21.67;57.73;102176.88;10354626;28;20034;-84
2022/05/05 13:56:16;;;;;;;12.68;7.22;;;;;;;22.01;57.54;102161.84;10371725;28;20089;-84
2022/05/05 14:01:16;;;;;;;9.88;7.30;;;;;;;21.96;55.90;102155.19;10354713;28;20047;-85
2022/05/05 14:06:17;;;;;;;11.15;7.22;;;;;;;22.39;55.01;102173.13;10338030;28;20125;-84
2022/05/05 14:16:38;;;;;;;9.65;6.97;;;;;;;22.91;54.34;102162.78;10368547;28;20041;-83
2022/05/05 14:21:39;;;;;;;13.25;7.47;;;;;;;23.02;54.39;102164.28;10336273;28;20030;-84
2022/05/05 14:26:39;;;;;;;8.90;6.88;;;;;;;23.42;54.17;102177.88;10351365;28;20251;-83
2022/05/05 14:31:40;;;;;;;10.63;6.65;;;;;;;23.91;54.07;102180.00;10351386;28;20054;-84
2022/05/05 14:36:40;;;;;;;16.92;8.32;;;;;;;24.19;51.45;102165.91;10337122;28;20033;-84
2022/05/05 14:41:41;;;;;;;13.55;8.27;;;;;;;23.39;52.33;102168.09;10335432;28;20074;-83
2022/05/05 14:46:42;;;;;;;14.57;8.40;;;;;;;22.87;53.10;102167.34;10369591;28;20030;-83
2022/05/05 14:51:42;;;;;;;11.60;8.13;;;;;;;22.56;53.13;102159.41;10342584;28;20034;-84
2022/05/05 14:56:43;;;;;;;14.60;8.63;;;;;;;22.66;52.29;102158.41;10334286;28;20504;-85
2022/05/05 15:01:43;;;;;;;13.90;9.07;;;;;;;22.90;52.03;102172.31;10351623;28;20030;-84
2022/05/05 15:06:48;;;;;;;13.73;7.82;;;;;;;22.22;55.06;102182.91;10350698;28;20030;-87
2022/05/05 15:11:48;;;;;;;12.80;8.00;;;;;;;21.68;54.94;102192.53;10353183;28;20109;-84
2022/05/05 15:16:49;;;;;;;12.05;8.43;;;;;;;21.15;56.67;102168.97;10336884;28;20026;-83
2022/05/05 15:21:49;;;;;;;17.00;8.52;;;;;;;20.93;58.65;102199.41;10335662;28;20030;-84
2022/05/05 15:26:50;;;;;;;12.30;8.23;;;;;;;20.70;60.48;102207.41;10351233;28;20086;-82
2022/05/05 15:31:50;;;;;;;18.52;8.63;;;;;;;20.18;60.55;102205.19;10335443;28;20022;-82
2022/05/05 15:36:51;;;;;;;12.82;8.35;;;;;;;19.66;61.09;102182.16;10350586;28;20029;-84
2022/05/05 15:41:51;;;;;;;12.88;7.13;;;;;;;19.41;64.10;102208.16;10335397;28;20047;-82
2022/05/05 15:46:52;;;;;;;15.75;8.30;;;;;;;19.12;63.50;102195.66;10334588;28;20042;-83
2022/05/05 15:51:52;;;;;;;10.77;7.13;;;;;;;19.15;64.93;102216.59;10333773;28;20474;-87
2022/05/05 15:56:53;;;;;;;11.07;7.65;;;;;;;18.99;64.84;102215.75;10356431;28;20049;-82
2022/05/05 16:01:53;;;;;;;10.93;7.18;;;;;;;18.81;65.45;102191.19;10298826;28;20385;-81
2022/05/05 16:06:54;;;;;;;13.30;7.93;;;;;;;18.72;65.98;102215.97;10334413;28;20065;-81
2022/05/05 16:11:55;;;;;;;13.93;7.75;;;;;;;18.63;67.80;102215.69;10333999;28;20038;-81
2022/05/05 16:16:56;;;;;;;15.60;7.75;;;;;;;18.49;67.80;102214.53;10347716;28;20038;-81
2022/05/05 16:21:57;;;;;;;11.80;7.00;;;;;;;18.45;68.24;102219.00;10325147;28;20039;-81
2022/05/05 16:32:16;;;;;;;12.07;7.13;;;;;;;18.12;69.73;102215.53;10374605;28;20110;-81
2022/05/05 16:37:17;;;;;;;12.95;7.05;;;;;;;18.16;67.65;102227.81;10328739;28;20053;-81
2022/05/05 16:42:18;;;;;;;9.43;6.13;;;;;;;17.97;69.82;102204.34;10304975;28;1209774;-81
2022/05/05 16:47:19;;;;;;;8.88;6.30;;;;;;;18.03;70.03;102200.47;10346021;28;20030;-82
2022/05/05 16:52:20;;;;;;;8.63;6.55;;;;;;;18.15;68.19;102215.84;10347835;28;20476;-82
2022/05/05 16:57:20;;;;;;;13.10;6.30;;;;;;;18.09;69.49;102232.81;10384330;28;20033;-82
2022/05/05 18:22:16;;;;;;;14.02;6.97;;;;;;;15.05;87.64;102283.31;10637235;27;20154;-69
2022/05/05 18:27:16;;;;;;;13.45;7.43;;;;;;;14.80;90.04;102282.81;10618221;27;20558;-68
2022/05/05 18:32:17;;;;;;;12.10;7.30;;;;;;;14.35;93.14;102244.81;10617680;28;20050;-69
2022/05/05 18:37:17;;;;;;;16.75;7.60;;;;;;;14.39;96.97;102306.94;10636135;27;20505;-69
2022/05/05 18:42:18;;;;;;;13.20;8.02;;;;;;;13.78;99.35;102235.28;10635716;27;20475;-69
2022/05/05 18:47:18;;;;;;;16.27;8.40;;;;;;;13.99;100.00;102300.25;10635764;27;20031;-69
2022/05/05 18:52:21;;;;;;;13.60;7.72;;;;;;;13.80;100.00;102305.06;10636194;27;20043;-68
2022/05/05 18:57:21;;;;;;;13.50;8.52;;;;;;;13.56;100.00;102306.16;10632836;28;20053;-69
2022/05/05 19:02:22;;;;;;;12.32;7.25;;;;;;;12.92;100.00;102229.34;10615411;27;20076;-69
2022/05/05 19:07:22;;;;;;;12.00;6.88;;;;;;;13.29;100.00;102331.50;10599379;27;20047;-69
2022/05/05 19:12:26;;;;;;;14.75;8.20;;;;;;;12.85;100.00;102289.38;10633559;27;20024;-69
2022/05/05 19:17:26;;;;;;;17.13;7.88;;;;;;;12.95;100.00;102344.94;10634041;28;20056;-68
2022/05/05 19:22:29;;;;;;;13.55;8.80;;;;;;;12.81;100.00;102346.22;10635669;27;20047;-69
2022/05/05 19:27:30;;;;;;;12.50;8.55;;;;;;;12.70;100.00;102353.38;10634623;28;20055;-69
2022/05/05 19:32:30;;;;;;;16.63;8.73;;;;;;;12.61;100.00;102361.13;10611959;27;20046;-68
2022/05/05 19:37:31;;;;;;;21.08;9.02;;;;;;;12.50;100.00;102362.72;10570324;28;20111;-68
2022/05/05 19:42:31;;;;;;;22.65;9.25;;;;;;;12.39;100.00;102354.41;10605555;28;20027;-69
2022/05/05 19:47:31;;;;;;;23.13;11.13;;;;;;;12.35;100.00;102372.50;10587696;28;20034;-68
2022/05/05 19:52:33;;;;;;;17.73;10.05;;;;;;;12.27;100.00;102362.59;10605192;28;20024;-68
2022/05/05 20:02:52;;;;;;;16.77;10.48;;;;;;;12.03;100.00;102378.13;10603212;28;20031;-68
2022/05/05 20:07:53;;;;;;;19.15;11.05;;;;;;;11.82;100.00;102380.19;10603081;28;20016;-69
2022/05/05 20:12:55;;;;;;;22.17;11.80;;;;;;;11.69;100.00;102385.84;10602834;28;20087;-69
2022/05/05 20:17:56;;;;;;;20.58;11.35;;;;;;;11.53;100.00;102370.69;10603785;28;20046;-68
2022/05/05 20:22:57;;;;;;;15.93;9.52;;;;;;;11.44;100.00;102394.94;10584357;28;20040;-69
2022/05/05 20:27:58;;;;;;;18.13;10.65;;;;;;;11.30;100.00;102383.13;10602503;28;20039;-69
2022/05/05 20:32:58;;;;;;;18.80;11.02;;;;;;;11.21;100.00;102400.19;10602029;28;20024;-69
2022/05/05 20:37:59;;;;;;;16.88;10.23;;;;;;;11.07;100.00;102400.25;10560880;28;20039;-69
2022/05/05 20:42:59;;;;;;;19.75;10.55;;;;;;;10.80;100.00;102384.94;10599898;28;20031;-68
2022/05/05 20:48:00;;;;;;;23.90;11.05;;;;;;;10.80;100.00;102405.03;10604036;28;20028;-68
2022/05/05 20:53:00;;;;;;;20.00;11.02;;;;;;;10.73;100.00;102423.53;10602726;28;20049;-69
2022/05/05 20:58:01;;;;;;;18.92;12.10;;;;;;;10.56;100.00;102409.38;10540974;28;20036;-69
2022/05/05 21:03:01;;;;;;;19.40;10.52;;;;;;;10.56;100.00;102420.38;10499336;28;20113;-69
2022/05/05 21:08:02;;;;;;;24.67;12.82;;;;;;;10.43;100.00;102421.25;10499685;28;20025;-69
2022/05/05 21:13:03;;;;;;;20.52;12.18;;;;;;;10.24;100.00;102406.47;10517285;28;20108;-69
2022/05/05 21:18:03;;;;;;;23.15;11.75;;;;;;;10.26;100.00;102431.03;10517716;28;20033;-68
2022/05/05 21:28:23;;;;;;;27.15;13.35;;;;;;;10.02;100.00;102424.25;10516610;28;20415;-69
2022/05/05 21:33:23;;;;;;;22.88;12.55;;;;;;;9.87;100.00;102406.06;10516431;28;20032;-69
2022/05/05 21:38:24;;;;;;;22.60;13.82;;;;;;;9.92;100.00;102432.09;10516667;28;20028;-69
2022/05/05 21:43:24;;;;;;;22.45;12.98;;;;;;;9.76;100.00;102425.13;10517484;28;20063;-69
2022/05/05 21:48:25;;;;;;;25.70;14.73;;;;;;;9.75;100.00;102449.03;10499226;28;20039;-69
2022/05/05 21:53:25;;;;;;;24.45;12.85;;;;;;;9.65;100.00;102451.34;10516206;28;20423;-69
2022/05/05 21:58:26;;;;;;;25.67;13.85;;;;;;;9.56;100.00;102447.94;10515985;28;20061;-69
2022/05/05 22:03:27;;;;;;;25.70;14.68;;;;;;;9.45;100.00;102446.66;10529991;28;20028;-69
2022/05/05 22:08:29;;;;;;;21.42;13.30;;;;;;;9.39;100.00;102453.00;10539644;28;20036;-69
2022/05/05 22:13:31;;;;;;;26.05;14.82;;;;;;;9.22;100.00;102429.66;10559403;28;20059;-68
2022/05/05 22:18:32;;;;;;;24.17;14.68;;;;;;;9.22;100.00;102448.91;10539612;28;20044;-68
2022/05/05 22:23:32;;;;;;;31.77;15.48;;;;;;;9.15;100.00;102448.91;10535455;28;20044;-69
2022/05/05 22:28:33;;;;;;;29.50;15.77;;;;;;;8.95;100.00;102439.72;10509185;28;20373;-68
2022/05/05 22:33:33;;;;;;;28.42;15.23;;;;;;;8.97;100.00;102452.22;10517945;28;20107;-68
2022/05/05 22:38:33;;;;;;;25.10;14.90;;;;;;;8.86;100.00;102442.66;10515277;28;20032;-68
2022/05/05 22:43:34;;;;;;;27.13;15.15;;;;;;;8.83;100.00;102455.97;10516350;28;20060;-68
2022/05/05 22:53:54;;;;;;;23.25;14.43;;;;;;;8.71;100.00;102443.88;10537899;28;20389;-67
2022/05/05 22:58:54;;;;;;;27.80;14.32;;;;;;;8.64;100.00;102447.41;10538263;28;20040;-69
2022/05/05 23:03:55;;;;;;;24.02;14.27;;;;;;;8.44;100.00;102422.59;10556656;28;20395;-68
2022/05/05 23:08:55;;;;;;;28.48;14.10;;;;;;;8.50;100.00;102442.91;10565318;28;20509;-68
2022/05/05 23:13:56;;;;;;;30.27;15.10;;;;;;;8.36;100.00;102432.84;10565774;28;20047;-68
2022/05/05 23:18:56;;;;;;;26.45;13.88;;;;;;;8.28;100.00;102428.38;10564379;28;20044;-68
2022/05/05 23:23:57;;;;;;;27.10;15.75;;;;;;;8.19;100.00;102435.91;10544803;28;20043;-69
2022/05/05 23:28:57;;;;;;;28.77;15.38;;;;;;;7.99;100.00;102422.03;10562754;28;20123;-68
2022/05/05 23:39:17;;;;;;;28.23;15.63;;;;;;;7.98;100.00;102438.69;10549523;28;20039;-68
2022/05/05 23:44:17;;;;;;;29.95;16.38;;;;;;;7.82;100.00;102424.22;10544987;28;20036;-68
2022/05/05 23:49:18;;;;;;;28.13;15.32;;;;;;;7.86;100.00;102444.72;10544839;28;20044;-68
2022/05/05 23:54:18;;;;;;;32.30;16.58;;;;;;;7.82;100.00;102448.91;10544847;28;20035;-68
2022/05/05 23:59:19;;;;;;;27.90;14.38;;;;;;;7.70;100.00;102442.25;10544427;28;20057;-69
